Radar AviationWeather DUATS TFRs Wunderground Accuweather Weather.com

alt : Radar

TAFs

KJXN 171707Z 1717/1812 30010G15KT P6SM SCT035 BKN040 OVC060
   FM171800 31012G23KT P6SM BKN040
   FM171900 31013G24KT P6SM SCT035
   FM180300 VRB03KT P6SM SKC
KTOL 171538Z 1716/1812 29010G20KT P6SM BKN045
   FM180000 30009KT P6SM FEW200
   FM180600 VRB03KT P6SM SKC
KDTW 171507Z 1715/1818 30015G25KT P6SM BKN045
   FM180100 30013KT P6SM SCT045
   FM180800 27007KT P6SM SKC
KCLE 171504Z 1715/1818 26012G20KT P6SM SCT070
   FM171600 28015G25KT P6SM VCSH BKN045
   FM172100 30015G25KT P6SM BKN070
   FM181100 33008KT P6SM BKN060
   FM181700 30008KT P6SM SCT100
KFDY 171126Z 1712/1812 25010G20KT 6SM HZ FEW250
   FM171600 29015G25KT P6SM BKN040
   FM172200 30010G20KT P6SM SCT090
   FM180300 30005KT P6SM FEW250
KFWA 171120Z 1712/1812 25010KT P6SM FEW250
   FM171500 29014G24KT P6SM BKN040
   FM172200 31012KT P6SM SCT150
   FM180300 VRB03KT P6SM SKC

METARs

KJXN 171656Z 30010G15KT 10SM SCT033 BKN042 OVC055 07/00 A3018 RMK AO2 SLP224 T00720000
KDUH 171655Z AUTO 32012G21KT 10SM SCT037 SCT050 OVC070 11/01 A3017 RMK AO2 T01070012
KFWA 171654Z 28015G23KT 10SM SCT042 11/02 A3023 RMK AO2 PK WND 29028/1608 SLP240 SCT V BKN T01060022
KDTW 171653Z 29010KT 10SM BKN040 OVC050 09/00 A3016 RMK AO2 SLP216 T00890000 $
KFDY 171653Z AUTO 29015G23KT 10SM SCT043 BKN060 12/02 A3016 RMK AO2 SLP213 T01170022
KTDZ 171653Z AUTO 32014G18KT 10SM SCT038 BKN050 OVC065 11/03 A3016 RMK AO2 SLP214 T01110033
KTOL 171652Z COR 31016G20KT 10SM SCT038 BKN049 OVC060 11/02 A3016 RMK AO2 SLP217 T01110017
KCLE 171651Z 29012G24KT 10SM SCT041 BKN070 12/04 A3014 RMK AO2 SLP206 T01220039

alt : Satellite

alt : TFRs